Time;durP1;ratioP1;P1;durP2;ratioP2;P2;SDS_P1;SDS_P2;PMS_P1;PMS_P2;Temp;Humidity;BMP_temperature;BMP_pressure;BME280_temperature;BME280_humidity;BME280_pressure;Samples;Min_cycle;Max_cycle;Signal;HPM_P1;HPM_P2
2021/08/17 04:33:09;;;;;;;7.00;4.53;;;9.90;99.90;;;;;;4950426;29;20547;-80
2021/08/17 04:35:34;;;;;;;8.90;5.30;;;9.90;99.90;;;;;;4956623;29;20502;-80
2021/08/17 04:38:00;;;;;;;6.83;4.40;;;9.90;99.90;;;;;;4955352;29;20187;-81
2021/08/17 04:40:25;;;;;;;8.93;5.37;;;9.90;99.90;;;;;;4955697;29;20257;-79
2021/08/17 04:42:51;;;;;;;7.30;4.80;;;9.90;99.90;;;;;;4936127;29;20554;-81
2021/08/17 04:45:17;;;;;;;10.67;4.87;;;9.90;99.90;;;;;;4935863;29;20188;-81
2021/08/17 04:47:48;;;;;;;11.33;5.00;;;9.90;99.90;;;;;;4937200;29;20259;-80
2021/08/17 04:50:14;;;;;;;6.03;5.00;;;9.90;99.90;;;;;;4937054;29;20458;-81
2021/08/17 04:52:40;;;;;;;6.23;4.17;;;9.90;99.90;;;;;;4936942;29;20439;-80
2021/08/17 04:55:07;;;;;;;10.57;6.13;;;9.90;99.90;;;;;;4939911;29;20173;-81
2021/08/17 04:57:49;;;;;;;12.43;7.50;;;10.00;99.90;;;;;;4941016;29;20478;-81
2021/08/17 05:00:16;;;;;;;13.20;7.67;;;10.00;99.90;;;;;;4940996;29;20425;-80
2021/08/17 05:02:41;;;;;;;13.23;7.53;;;10.00;99.90;;;;;;4941383;29;20491;-81
2021/08/17 05:05:07;;;;;;;14.33;6.63;;;10.00;99.90;;;;;;4942564;29;20414;-80
2021/08/17 05:07:39;;;;;;;9.53;5.63;;;10.00;99.90;;;;;;4941184;29;20208;-81
2021/08/17 05:10:11;;;;;;;9.93;5.20;;;10.00;99.90;;;;;;4940992;29;20181;-80
2021/08/17 05:12:37;;;;;;;12.43;5.57;;;10.10;99.90;;;;;;4941322;29;20452;-81
2021/08/17 05:15:05;;;;;;;8.43;5.73;;;10.20;99.90;;;;;;4940784;29;20414;-81
2021/08/17 05:17:31;;;;;;;8.47;5.87;;;10.30;99.90;;;;;;4940356;29;20528;-80
2021/08/17 05:19:56;;;;;;;8.87;5.57;;;10.30;99.90;;;;;;4956063;29;20470;-80
2021/08/17 05:22:22;;;;;;;9.73;5.50;;;10.40;99.90;;;;;;4940686;29;20241;-82
2021/08/17 05:24:47;;;;;;;8.80;5.60;;;10.50;99.90;;;;;;4941064;29;20182;-81
2021/08/17 05:27:13;;;;;;;7.67;4.87;;;10.80;99.90;;;;;;4940825;29;20226;-80
2021/08/17 05:29:38;;;;;;;7.70;4.90;;;11.00;99.90;;;;;;4940270;29;20192;-81
2021/08/17 05:32:05;;;;;;;8.50;5.57;;;11.30;99.90;;;;;;4941166;29;20302;-81
2021/08/17 05:34:32;;;;;;;6.70;4.33;;;11.80;99.90;;;;;;4941573;29;20202;-81
2021/08/17 05:36:58;;;;;;;7.97;4.30;;;12.30;99.90;;;;;;4941636;29;20427;-81
2021/08/17 05:39:23;;;;;;;7.40;5.27;;;12.90;99.90;;;;;;4941769;29;20410;-80
2021/08/17 05:41:49;;;;;;;11.40;4.80;;;13.30;99.90;;;;;;4940933;29;20212;-81
2021/08/17 05:44:14;;;;;;;6.97;4.40;;;13.60;99.90;;;;;;4941841;29;20268;-81
2021/08/17 05:46:40;;;;;;;5.80;5.00;;;14.00;99.90;;;;;;4939841;29;20241;-81
2021/08/17 05:49:05;;;;;;;8.70;3.33;;;14.40;99.90;;;;;;4941584;29;20587;-81
2021/08/17 05:51:31;;;;;;;8.53;3.53;;;14.60;99.90;;;;;;4941741;29;20224;-82
2021/08/17 05:53:56;;;;;;;5.30;3.50;;;14.80;99.90;;;;;;4942327;29;20193;-81
2021/08/17 05:56:22;;;;;;;6.00;4.17;;;15.10;99.90;;;;;;4940988;29;20196;-80
2021/08/17 05:58:47;;;;;;;5.00;3.90;;;15.30;99.90;;;;;;4942384;29;20187;-81
2021/08/17 06:01:13;;;;;;;6.57;3.83;;;15.60;99.90;;;;;;4942124;29;20271;-81
2021/08/17 06:03:38;;;;;;;6.20;4.50;;;15.90;99.90;;;;;;4942835;29;20169;-81
2021/08/17 06:06:04;;;;;;;10.30;4.10;;;15.90;99.90;;;;;;4942276;29;20201;-81
2021/08/17 06:08:30;;;;;;;4.60;3.80;;;15.90;99.90;;;;;;4943648;29;20647;-82
2021/08/17 06:10:55;;;;;;;7.43;4.47;;;16.00;99.90;;;;;;4948847;29;20565;-81
2021/08/17 06:13:23;;;;;;;8.03;3.90;;;16.20;99.90;;;;;;4944420;29;20663;-81
2021/08/17 06:15:49;;;;;;;5.10;3.73;;;16.40;99.90;;;;;;4938268;29;20544;-81
2021/08/17 06:18:14;;;;;;;5.33;3.77;;;16.80;99.90;;;;;;4937971;29;20417;-81
2021/08/17 06:20:40;;;;;;;4.37;3.23;;;17.00;99.90;;;;;;4938944;29;20206;-81
2021/08/17 06:23:05;;;;;;;6.80;4.50;;;17.10;99.90;;;;;;4937888;29;20205;-81
2021/08/17 06:25:31;;;;;;;5.50;3.97;;;17.20;99.90;;;;;;4937494;29;20201;-81
2021/08/17 06:27:57;;;;;;;5.03;4.10;;;17.30;99.90;;;;;;4937677;29;20229;-80
2021/08/17 06:30:23;;;;;;;6.13;4.10;;;17.30;99.90;;;;;;4936620;29;20204;-81
2021/08/17 06:32:49;;;;;;;4.40;3.70;;;17.40;99.90;;;;;;4937230;29;20212;-80
2021/08/17 06:35:15;;;;;;;3.63;3.20;;;17.50;99.90;;;;;;4937240;29;20425;-82
2021/08/17 06:37:40;;;;;;;4.37;3.63;;;17.70;99.90;;;;;;4937033;29;20673;-80
2021/08/17 06:40:07;;;;;;;9.40;4.87;;;17.80;99.90;;;;;;4936814;29;20272;-81
2021/08/17 06:42:33;;;;;;;5.80;3.77;;;17.80;99.90;;;;;;4937293;29;20256;-81
2021/08/17 06:44:58;;;;;;;4.43;3.90;;;17.80;99.90;;;;;;4937277;29;20480;-82
2021/08/17 06:47:24;;;;;;;13.43;4.87;;;17.70;99.90;;;;;;4936922;29;20212;-82
2021/08/17 06:49:49;;;;;;;7.03;4.17;;;17.70;99.90;;;;;;4936615;29;20177;-81
2021/08/17 06:52:15;;;;;;;5.40;4.37;;;18.10;99.90;;;;;;4936766;29;20216;-81
2021/08/17 06:54:40;;;;;;;5.27;4.00;;;18.20;99.90;;;;;;4937101;29;20670;-81
2021/08/17 06:57:06;;;;;;;7.40;3.70;;;18.10;99.90;;;;;;4937620;29;20192;-81
2021/08/17 06:59:32;;;;;;;5.27;4.57;;;17.80;99.90;;;;;;4937326;29;20189;-81
2021/08/17 07:01:58;;;;;;;6.87;4.70;;;17.90;99.90;;;;;;4937535;29;20193;-81
2021/08/17 07:04:24;;;;;;;6.17;4.27;;;17.80;99.90;;;;;;4937548;29;20182;-80
2021/08/17 07:06:49;;;;;;;6.33;4.50;;;17.90;99.90;;;;;;4937762;29;20516;-81
2021/08/17 07:09:14;;;;;;;5.67;4.70;;;18.10;99.90;;;;;;4937792;29;20181;-81
2021/08/17 07:11:40;;;;;;;4.70;3.97;;;18.30;99.90;;;;;;4938305;29;20197;-81
2021/08/17 07:14:06;;;;;;;6.00;5.40;;;18.30;99.90;;;;;;4937658;29;20177;-81
2021/08/17 07:16:31;;;;;;;8.63;4.87;;;18.60;99.90;;;;;;4937152;29;20185;-81
2021/08/17 07:18:57;;;;;;;6.77;4.90;;;18.80;99.90;;;;;;4938559;29;20548;-81
2021/08/17 07:21:22;;;;;;;5.77;4.40;;;19.20;99.90;;;;;;4936862;29;20212;-81
2021/08/17 07:23:48;;;;;;;7.97;4.60;;;19.20;99.90;;;;;;4938643;29;20188;-81
2021/08/17 07:26:14;;;;;;;5.23;4.20;;;18.80;99.90;;;;;;4938075;29;20292;-81
2021/08/17 07:28:40;;;;;;;7.73;5.53;;;19.00;99.90;;;;;;4938554;29;20165;-81
2021/08/17 07:31:05;;;;;;;6.20;4.77;;;19.20;99.90;;;;;;4937715;29;20449;-81
2021/08/17 07:33:31;;;;;;;11.90;4.87;;;19.30;99.90;;;;;;4938825;29;20376;-81
2021/08/17 07:35:56;;;;;;;6.83;5.07;;;19.90;99.90;;;;;;4940198;29;20537;-81
2021/08/17 07:38:22;;;;;;;8.20;5.20;;;20.30;99.90;;;;;;4940224;29;20196;-81
2021/08/17 07:40:47;;;;;;;7.67;4.40;;;20.10;99.90;;;;;;4939106;29;20193;-81
2021/08/17 07:43:14;;;;;;;8.73;5.17;;;19.90;99.90;;;;;;4938712;29;20208;-81
2021/08/17 07:45:39;;;;;;;6.50;4.73;;;19.20;99.90;;;;;;4939394;29;20176;-82
2021/08/17 07:48:05;;;;;;;8.30;4.97;;;19.40;99.90;;;;;;4939226;29;20421;-81
2021/08/17 07:50:31;;;;;;;7.17;5.37;;;19.70;99.90;;;;;;4939040;29;20197;-81
2021/08/17 07:52:57;;;;;;;8.30;5.13;;;19.40;99.90;;;;;;4938971;29;20174;-81
2021/08/17 07:55:22;;;;;;;6.70;5.20;;;19.10;99.90;;;;;;4939969;29;20180;-81
2021/08/17 07:57:48;;;;;;;6.07;4.37;;;18.70;99.90;;;;;;4939480;29;20169;-81
2021/08/17 08:00:14;;;;;;;5.87;4.63;;;18.30;99.90;;;;;;4939676;29;20209;-82
2021/08/17 08:02:40;;;;;;;9.23;4.97;;;18.00;99.90;;;;;;4940463;29;20197;-82
2021/08/17 08:05:06;;;;;;;9.60;6.10;;;17.80;99.90;;;;;;4940092;29;20929;-81
2021/08/17 08:07:32;;;;;;;7.80;5.80;;;18.20;99.90;;;;;;4940476;29;20712;-81
2021/08/17 08:09:58;;;;;;;7.87;4.53;;;18.20;99.90;;;;;;4943386;29;20440;-82
2021/08/17 08:12:23;;;;;;;12.63;5.20;;;18.30;99.90;;;;;;4944082;29;20221;-81
2021/08/17 08:14:49;;;;;;;5.10;4.53;;;18.70;99.90;;;;;;4939465;29;20177;-81
2021/08/17 08:17:15;;;;;;;6.60;5.53;;;19.10;99.90;;;;;;4939115;29;20189;-81
2021/08/17 08:19:40;;;;;;;6.97;4.90;;;18.90;99.90;;;;;;4938960;29;20538;-81
2021/08/17 08:22:07;;;;;;;5.70;4.10;;;18.80;99.90;;;;;;4937981;29;20198;-82
2021/08/17 08:24:36;;;;;;;6.13;4.50;;;19.00;99.90;;;;;;4937956;29;20212;-81
2021/08/17 08:27:03;;;;;;;5.90;4.77;;;19.50;99.90;;;;;;4938123;29;20471;-81
2021/08/17 08:29:28;;;;;;;5.60;4.60;;;20.30;99.90;;;;;;4941661;29;20437;-82
2021/08/17 08:31:54;;;;;;;7.03;3.83;;;20.50;99.90;;;;;;4941842;29;20457;-81
2021/08/17 08:34:20;;;;;;;5.97;4.37;;;20.30;99.90;;;;;;4941252;29;20180;-81
2021/08/17 08:36:45;;;;;;;7.23;4.40;;;20.30;99.90;;;;;;4941142;29;20177;-82
2021/08/17 08:39:11;;;;;;;7.37;4.70;;;20.00;99.90;;;;;;4941510;29;21030;-81
2021/08/17 08:41:39;;;;;;;8.13;5.10;;;19.70;99.90;;;;;;4942235;29;20201;-81
2021/08/17 08:44:04;;;;;;;7.10;4.80;;;19.50;99.90;;;;;;4943352;29;20201;-81
2021/08/17 08:46:30;;;;;;;7.90;4.00;;;19.30;99.90;;;;;;4942766;29;20494;-81
2021/08/17 08:48:56;;;;;;;7.40;4.47;;;19.10;99.90;;;;;;4941397;29;20205;-82
2021/08/17 08:51:22;;;;;;;5.70;4.30;;;19.00;99.90;;;;;;4942175;29;20204;-81
2021/08/17 08:53:48;;;;;;;6.03;5.00;;;19.00;99.90;;;;;;4940842;29;20647;-81
2021/08/17 08:56:14;;;;;;;5.67;4.20;;;18.90;99.90;;;;;;4942600;29;20421;-82
2021/08/17 08:58:43;;;;;;;6.10;4.40;;;19.00;99.90;;;;;;4942414;29;20504;-82
2021/08/17 09:01:18;;;;;;;7.17;4.47;;;19.00;99.90;;;;;;4940970;29;20198;-81
2021/08/17 09:03:50;;;;;;;6.40;5.30;;;19.00;99.90;;;;;;4942036;29;20421;-82
2021/08/17 09:06:21;;;;;;;5.20;4.20;;;19.50;99.90;;;;;;4942103;29;20468;-82
2021/08/17 09:08:48;;;;;;;7.27;4.73;;;20.00;99.90;;;;;;4942421;29;20417;-82
2021/08/17 09:11:22;;;;;;;9.23;4.77;;;20.50;99.90;;;;;;4941825;29;20437;-82
2021/08/17 09:13:48;;;;;;;6.47;3.40;;;21.20;99.90;;;;;;4940113;29;20476;-83
2021/08/17 09:16:30;;;;;;;5.50;4.13;;;21.80;99.90;;;;;;4938760;29;20460;-79
2021/08/17 09:18:56;;;;;;;6.53;4.30;;;22.20;99.90;;;;;;4938206;29;20435;-80
2021/08/17 09:21:37;;;;;;;4.63;4.10;;;21.70;99.90;;;;;;4937776;29;20441;-79
2021/08/17 09:24:13;;;;;;;4.60;3.63;;;21.40;99.90;;;;;;4935895;29;20429;-79
2021/08/17 09:26:48;;;;;;;8.07;4.70;;;20.70;99.90;;;;;;4936061;29;21083;-79
2021/08/17 09:29:25;;;;;;;4.83;4.30;;;20.70;99.90;;;;;;4936878;29;20409;-79
2021/08/17 09:31:52;;;;;;;12.00;4.23;;;20.80;99.90;;;;;;4935751;29;20488;-80
2021/08/17 09:34:19;;;;;;;5.10;4.17;;;20.70;99.90;;;;;;4937238;29;20445;-79
2021/08/17 09:36:46;;;;;;;6.70;4.00;;;20.60;99.90;;;;;;4937173;29;20444;-79
2021/08/17 09:39:27;;;;;;;5.73;5.07;;;20.60;99.90;;;;;;4936381;29;20427;-79
2021/08/17 09:42:08;;;;;;;4.87;3.70;;;20.50;99.90;;;;;;4936752;29;20540;-79
2021/08/17 09:44:34;;;;;;;4.07;3.67;;;20.50;99.90;;;;;;4935698;29;20421;-79
2021/08/17 09:46:59;;;;;;;7.00;4.33;;;20.60;99.90;;;;;;4936895;29;20876;-81
2021/08/17 09:49:27;;;;;;;5.30;4.43;;;21.10;99.90;;;;;;4936661;29;20182;-79
2021/08/17 09:52:15;;;;;;;6.67;4.50;;;20.70;99.90;;;;;;4936817;29;20189;-79
2021/08/17 09:54:45;;;;;;;6.20;4.10;;;20.60;99.90;;;;;;4936954;29;20772;-78
2021/08/17 09:57:12;;;;;;;5.73;4.80;;;20.50;99.90;;;;;;4936383;29;20427;-79
2021/08/17 09:59:40;;;;;;;6.30;4.07;;;20.30;99.90;;;;;;4935170;29;20961;-79
2021/08/17 10:02:07;;;;;;;6.93;3.73;;;19.90;99.90;;;;;;4935196;29;20445;-79
2021/08/17 10:04:34;;;;;;;3.87;3.57;;;19.90;99.90;;;;;;4935263;29;20504;-79
2021/08/17 10:07:01;;;;;;;6.80;3.20;;;19.80;99.90;;;;;;4936378;29;20469;-79
2021/08/17 10:09:29;;;;;;;4.93;4.23;;;19.70;99.90;;;;;;4936338;29;20508;-78
2021/08/17 10:11:55;;;;;;;7.53;4.10;;;19.50;99.90;;;;;;4937382;29;20524;-79
2021/08/17 10:14:21;;;;;;;4.47;3.80;;;19.40;99.90;;;;;;4936382;29;20445;-79
2021/08/17 10:16:46;;;;;;;5.10;3.97;;;19.40;99.90;;;;;;4936218;29;20424;-79
2021/08/17 10:19:16;;;;;;;4.03;3.60;;;19.30;99.90;;;;;;4935826;29;20421;-79
2021/08/17 10:21:45;;;;;;;8.10;4.00;;;19.30;99.90;;;;;;4935843;29;20248;-79
2021/08/17 10:24:34;;;;;;;6.37;4.57;;;19.10;99.90;;;;;;4935654;29;20420;-79
2021/08/17 10:27:22;;;;;;;4.63;3.20;;;18.90;99.90;;;;;;4935624;29;20517;-80
2021/08/17 10:29:52;;;;;;;6.70;3.90;;;18.80;99.90;;;;;;4935761;29;20401;-78
2021/08/17 10:32:40;;;;;;;4.90;3.40;;;18.80;99.90;;;;;;4935525;29;21129;-79
2021/08/17 10:35:07;;;;;;;4.47;3.30;;;19.10;99.90;;;;;;4935615;29;20782;-79
2021/08/17 10:37:35;;;;;;;3.70;3.40;;;19.30;99.90;;;;;;4934284;29;20428;-79
2021/08/17 10:40:00;;;;;;;4.33;3.33;;;19.70;99.90;;;;;;4935302;29;20445;-79
2021/08/17 10:42:27;;;;;;;3.70;3.40;;;20.60;99.90;;;;;;4935322;29;20487;-79
2021/08/17 10:45:13;;;;;;;6.10;4.17;;;21.40;99.90;;;;;;4935492;29;20180;-78
2021/08/17 10:47:39;;;;;;;8.83;4.40;;;21.70;99.90;;;;;;4935038;29;20583;-79
2021/08/17 10:50:05;;;;;;;5.70;4.00;;;21.60;99.90;;;;;;4935043;29;20488;-79
2021/08/17 10:52:35;;;;;;;5.70;3.90;;;22.10;99.90;;;;;;4934995;29;20205;-79
2021/08/17 10:55:19;;;;;;;3.97;3.53;;;22.60;99.90;;;;;;4935178;29;20414;-78
2021/08/17 10:58:03;;;;;;;4.33;3.50;;;23.00;99.90;;;;;;4933830;29;20428;-79
2021/08/17 11:01:08;;;;;;;4.13;3.77;;;23.00;99.90;;;;;;4933739;29;20950;-77
2021/08/17 11:03:43;;;;;;;5.60;3.57;;;23.10;99.90;;;;;;4894910;29;20962;-79
2021/08/17 11:06:10;;;;;;;3.87;3.00;;;23.00;99.90;;;;;;4897626;29;20470;-81
2021/08/17 11:08:36;;;;;;;3.37;3.07;;;22.80;99.90;;;;;;4920904;29;20425;-81
2021/08/17 11:11:17;;;;;;;5.60;3.80;;;22.50;99.90;;;;;;4936461;29;20437;-79
2021/08/17 11:14:00;;;;;;;4.17;3.50;;;22.50;99.90;;;;;;4935228;29;21139;-80
2021/08/17 11:16:26;;;;;;;4.10;3.00;;;22.40;99.90;;;;;;4934861;29;20440;-79
2021/08/17 11:18:57;;;;;;;7.10;4.50;;;22.40;99.90;;;;;;4934861;29;20449;-78
2021/08/17 11:21:31;;;;;;;4.80;3.07;;;22.00;99.90;;;;;;4934808;29;20252;-79
2021/08/17 11:24:23;;;;;;;5.33;3.30;;;21.60;99.90;;;;;;4933545;29;20433;-79
2021/08/17 11:26:53;;;;;;;3.67;3.37;;;21.60;99.90;;;;;;4933288;29;20500;-79
2021/08/17 11:29:32;;;;;;;6.10;3.10;;;21.90;99.90;;;;;;4934444;29;20406;-78
2021/08/17 11:32:02;;;;;;;4.37;3.70;;;22.30;99.90;;;;;;4934264;29;20461;-80
2021/08/17 11:34:32;;;;;;;3.73;3.43;;;22.40;99.90;;;;;;4933229;29;20417;-80
2021/08/17 11:37:13;;;;;;;6.37;3.70;;;22.70;99.90;;;;;;4934441;29;20799;-79
2021/08/17 11:39:41;;;;;;;5.00;3.23;;;23.00;99.90;;;;;;4934487;29;20409;-79
2021/08/17 11:42:09;;;;;;;3.87;2.73;;;23.20;99.90;;;;;;4934295;29;20429;-77
2021/08/17 11:44:35;;;;;;;4.43;3.20;;;23.00;99.90;;;;;;4934692;29;20517;-79
2021/08/17 11:47:12;;;;;;;5.10;3.30;;;23.00;99.90;;;;;;4934341;29;20475;-79
2021/08/17 11:49:39;;;;;;;7.93;3.47;;;23.00;99.90;;;;;;4934462;29;20920;-78
2021/08/17 11:52:10;;;;;;;4.50;3.60;;;23.00;99.90;;;;;;4934088;29;20473;-78
2021/08/17 11:54:45;;;;;;;4.37;3.10;;;22.70;99.90;;;;;;4933183;29;20429;-79
2021/08/17 11:57:11;;;;;;;5.70;2.60;;;22.70;99.90;;;;;;4934214;29;20858;-79
2021/08/17 11:59:39;;;;;;;3.80;2.80;;;22.80;99.90;;;;;;4934192;29;20439;-79
2021/08/17 12:02:05;;;;;;;3.83;3.30;;;22.90;99.90;;;;;;4934492;29;20945;-83
2021/08/17 12:04:31;;;;;;;5.73;3.80;;;22.90;99.90;;;;;;4944082;29;20477;-81
2021/08/17 12:07:09;;;;;;;6.60;3.60;;;22.60;99.90;;;;;;4941731;29;20701;-79
2021/08/17 12:09:37;;;;;;;4.57;3.80;;;22.60;99.90;;;;;;4937872;29;20177;-78
2021/08/17 12:12:03;;;;;;;3.07;2.60;;;22.60;99.90;;;;;;4937861;29;20432;-79
2021/08/17 12:14:28;;;;;;;4.50;2.50;;;22.70;99.90;;;;;;4938031;29;20778;-79
2021/08/17 12:16:55;;;;;;;3.87;2.40;;;22.50;99.90;;;;;;4938030;29;20209;-79
2021/08/17 12:19:21;;;;;;;3.73;3.00;;;22.50;99.90;;;;;;4937871;29;20722;-79
2021/08/17 12:21:47;;;;;;;3.43;3.13;;;22.30;99.90;;;;;;4937837;29;20476;-79
2021/08/17 12:24:28;;;;;;;2.80;2.53;;;22.30;99.90;;;;;;4937709;29;20832;-78
2021/08/17 12:26:54;;;;;;;4.67;3.23;;;22.40;99.90;;;;;;4937822;29;20205;-79
2021/08/17 12:29:24;;;;;;;3.63;2.83;;;22.60;99.90;;;;;;4937444;29;20417;-78
2021/08/17 12:31:54;;;;;;;5.33;3.30;;;22.40;99.90;;;;;;4937582;29;20460;-79
2021/08/17 12:34:21;;;;;;;3.37;3.07;;;22.30;99.90;;;;;;4937487;29;20421;-80
2021/08/17 12:36:49;;;;;;;3.93;2.73;;;22.30;99.90;;;;;;4937713;29;20452;-78
2021/08/17 12:39:20;;;;;;;4.10;2.87;;;22.40;99.90;;;;;;4937441;29;20789;-78
2021/08/17 12:41:48;;;;;;;4.07;3.47;;;22.60;99.90;;;;;;4937502;29;20496;-78
2021/08/17 12:44:22;;;;;;;5.30;3.13;;;22.50;99.90;;;;;;4937234;29;20441;-79
2021/08/17 12:47:13;;;;;;;3.47;2.97;;;22.50;99.90;;;;;;4937485;29;20539;-78
2021/08/17 12:50:00;;;;;;;3.87;3.47;;;22.40;99.90;;;;;;4937246;29;20413;-79
2021/08/17 12:52:31;;;;;;;2.63;2.30;;;22.40;99.90;;;;;;4937171;29;20527;-79
2021/08/17 12:55:07;;;;;;;7.23;3.33;;;22.70;99.90;;;;;;4937183;29;20413;-79
2021/08/17 12:57:35;;;;;;;5.43;3.73;;;22.90;99.90;;;;;;4937279;29;20786;-79
2021/08/17 13:00:03;;;;;;;4.97;3.80;;;22.70;99.90;;;;;;4936993;29;20409;-80
2021/08/17 13:02:29;;;;;;;2.83;2.60;;;22.60;99.90;;;;;;4936950;29;20496;-79
2021/08/17 13:04:54;;;;;;;4.30;3.40;;;22.70;99.90;;;;;;4937286;29;20417;-78
2021/08/17 13:07:20;;;;;;;4.40;3.50;;;22.60;99.90;;;;;;4936961;29;20225;-77
2021/08/17 13:09:46;;;;;;;4.50;3.80;;;22.30;99.90;;;;;;4936939;29;20201;-79
2021/08/17 13:12:11;;;;;;;5.53;3.23;;;22.20;99.90;;;;;;4936877;29;20243;-80
2021/08/17 13:14:37;;;;;;;3.97;3.57;;;22.10;99.90;;;;;;4934528;29;20198;-78
2021/08/17 13:17:04;;;;;;;4.40;3.90;;;22.10;99.90;;;;;;4937063;29;20178;-79
2021/08/17 13:19:29;;;;;;;3.43;3.13;;;22.10;99.90;;;;;;4936666;29;20178;-78
2021/08/17 13:21:55;;;;;;;4.63;3.20;;;22.00;99.90;;;;;;4936846;29;20797;-79
2021/08/17 13:24:21;;;;;;;3.80;3.33;;;22.00;99.90;;;;;;4936609;29;20205;-79
2021/08/17 13:26:46;;;;;;;4.80;3.80;;;21.70;99.90;;;;;;4936778;29;20292;-79
2021/08/17 13:29:12;;;;;;;4.90;3.87;;;21.80;99.90;;;;;;4936505;29;20579;-79
2021/08/17 13:31:37;;;;;;;5.83;3.77;;;22.00;99.90;;;;;;4936347;29;20216;-79
2021/08/17 13:34:03;;;;;;;5.43;3.50;;;22.00;99.90;;;;;;4936473;29;20169;-79
2021/08/17 13:36:29;;;;;;;5.90;4.27;;;21.90;99.90;;;;;;4936633;29;20256;-78
2021/08/17 13:38:54;;;;;;;4.17;3.73;;;21.70;99.90;;;;;;4936450;29;20264;-78
2021/08/17 13:41:20;;;;;;;4.90;4.03;;;21.70;99.90;;;;;;4936085;29;20288;-78
2021/08/17 13:43:45;;;;;;;7.43;4.27;;;21.50;99.90;;;;;;4935487;29;20281;-78
2021/08/17 13:46:11;;;;;;;6.07;4.13;;;21.50;99.90;;;;;;4936403;29;20248;-78
2021/08/17 13:48:36;;;;;;;5.27;3.50;;;21.50;99.90;;;;;;4943202;29;20197;-81
2021/08/17 13:51:02;;;;;;;4.20;3.80;;;21.50;99.90;;;;;;4946089;29;20205;-83
2021/08/17 13:53:28;;;;;;;4.43;4.00;;;21.60;99.90;;;;;;4943152;29;20662;-82
2021/08/17 13:55:54;;;;;;;4.40;4.00;;;21.50;99.90;;;;;;4939453;29;20417;-78
2021/08/17 13:58:19;;;;;;;7.13;5.20;;;21.40;99.90;;;;;;4935995;29;20201;-78
2021/08/17 14:00:45;;;;;;;7.27;4.17;;;21.20;99.90;;;;;;4936525;29;20542;-79
2021/08/17 14:03:12;;;;;;;6.07;4.50;;;21.30;99.90;;;;;;4940100;29;20181;-80
2021/08/17 14:05:37;;;;;;;5.90;4.63;;;21.20;99.90;;;;;;4940481;29;20181;-81
2021/08/17 14:08:03;;;;;;;4.77;4.30;;;21.10;99.90;;;;;;4938742;29;20469;-82
2021/08/17 14:10:29;;;;;;;7.33;4.60;;;21.10;99.90;;;;;;4939916;29;20658;-79
2021/08/17 14:12:55;;;;;;;5.77;4.70;;;21.00;99.90;;;;;;4940097;29;20201;-80
2021/08/17 14:15:20;;;;;;;4.60;3.87;;;20.90;99.90;;;;;;4940376;29;20418;-81
2021/08/17 14:17:46;;;;;;;5.90;4.37;;;20.90;99.90;;;;;;4940004;29;20191;-81
2021/08/17 14:20:12;;;;;;;6.63;4.73;;;20.90;99.90;;;;;;4940139;29;20189;-80
2021/08/17 14:22:37;;;;;;;6.17;4.00;;;21.00;99.90;;;;;;4939218;29;20204;-80
2021/08/17 14:25:04;;;;;;;5.87;4.80;;;21.00;99.90;;;;;;4939534;29;20201;-80
2021/08/17 14:27:29;;;;;;;5.70;4.27;;;20.90;99.90;;;;;;4937604;29;20209;-80
2021/08/17 14:29:55;;;;;;;7.60;4.70;;;20.90;99.90;;;;;;4939760;29;20422;-80
2021/08/17 14:32:21;;;;;;;9.60;4.87;;;21.00;99.90;;;;;;4938708;29;20583;-80
2021/08/17 14:34:47;;;;;;;15.97;5.10;;;20.80;99.90;;;;;;4939088;29;20409;-81
2021/08/17 14:37:12;;;;;;;6.00;4.53;;;20.90;99.90;;;;;;4938818;29;20178;-81
2021/08/17 14:39:40;;;;;;;5.67;4.53;;;20.90;99.90;;;;;;4939099;29;20213;-80
2021/08/17 14:42:06;;;;;;;6.97;5.40;;;20.90;99.90;;;;;;4939224;29;20220;-80
2021/08/17 14:44:31;;;;;;;7.90;5.27;;;20.90;99.90;;;;;;4938446;29;20916;-80
2021/08/17 14:47:00;;;;;;;6.43;5.50;;;20.80;99.90;;;;;;4938072;29;20464;-80
2021/08/17 14:49:25;;;;;;;6.80;4.90;;;20.70;99.90;;;;;;4937331;29;20790;-80
2021/08/17 14:51:51;;;;;;;7.33;5.80;;;20.60;99.90;;;;;;4937411;29;20433;-80
2021/08/17 14:54:16;;;;;;;7.37;5.13;;;20.50;99.90;;;;;;4937067;29;20174;-79
2021/08/17 14:56:42;;;;;;;6.63;4.67;;;20.40;99.90;;;;;;4937315;29;20734;-80
2021/08/17 14:59:08;;;;;;;7.10;5.30;;;20.40;99.90;;;;;;4936365;29;20265;-80
2021/08/17 15:01:33;;;;;;;7.70;5.13;;;20.40;99.90;;;;;;4937075;29;20202;-80
2021/08/17 15:03:59;;;;;;;6.20;4.80;;;20.30;99.90;;;;;;4936411;29;20552;-80
2021/08/17 15:06:26;;;;;;;5.90;4.67;;;20.30;99.90;;;;;;4936506;29;20205;-80
2021/08/17 15:08:51;;;;;;;7.77;5.57;;;20.20;99.90;;;;;;4936162;29;20184;-80
2021/08/17 15:11:17;;;;;;;10.30;6.43;;;20.20;99.90;;;;;;4935917;29;20441;-79
2021/08/17 15:13:42;;;;;;;7.53;5.00;;;20.20;99.90;;;;;;4936055;29;20177;-80
2021/08/17 15:16:08;;;;;;;7.17;5.73;;;20.20;99.90;;;;;;4935812;29;20181;-80
2021/08/17 15:18:35;;;;;;;5.83;4.43;;;20.10;99.90;;;;;;4935875;29;20177;-80
2021/08/17 15:21:01;;;;;;;8.00;5.10;;;19.90;99.90;;;;;;4935398;29;20575;-80
2021/08/17 15:23:27;;;;;;;10.67;6.20;;;19.70;99.90;;;;;;4934865;29;20417;-80
2021/08/17 15:25:54;;;;;;;7.00;5.43;;;19.60;99.90;;;;;;4936013;29;20188;-79
2021/08/17 15:28:21;;;;;;;8.73;5.13;;;19.50;99.90;;;;;;4935796;29;20256;-80
2021/08/17 15:30:48;;;;;;;9.33;5.70;;;19.40;99.90;;;;;;4935546;29;20499;-80
2021/08/17 15:33:14;;;;;;;7.27;5.63;;;19.50;99.90;;;;;;4934724;29;20421;-78
2021/08/17 15:35:40;;;;;;;6.83;4.90;;;19.40;99.90;;;;;;4936451;29;20412;-80
2021/08/17 15:38:07;;;;;;;7.60;5.73;;;19.30;99.90;;;;;;4935055;29;20185;-80
2021/08/17 15:40:33;;;;;;;10.40;6.00;;;19.20;99.90;;;;;;4936182;29;20236;-79
2021/08/17 15:42:58;;;;;;;9.40;5.77;;;19.20;99.90;;;;;;4934570;29;20832;-79
2021/08/17 15:45:24;;;;;;;9.60;6.80;;;19.10;99.90;;;;;;4935880;29;20193;-80
2021/08/17 15:47:50;;;;;;;7.80;5.67;;;19.00;99.90;;;;;;4935496;29;20209;-80
2021/08/17 15:50:17;;;;;;;7.63;5.40;;;18.90;99.90;;;;;;4935423;29;20177;-80
2021/08/17 15:52:44;;;;;;;6.73;5.13;;;18.80;99.90;;;;;;4935417;29;20202;-80
2021/08/17 15:55:10;;;;;;;7.60;5.83;;;18.70;99.90;;;;;;4935340;29;20918;-80
2021/08/17 15:57:44;;;;;;;7.90;5.87;;;18.70;99.90;;;;;;4935856;29;20428;-79
2021/08/17 16:00:10;;;;;;;10.67;6.93;;;18.70;99.90;;;;;;4935351;29;20445;-80
2021/08/17 16:02:35;;;;;;;8.70;6.07;;;18.60;99.90;;;;;;4935184;29;20809;-80
2021/08/17 16:05:01;;;;;;;9.57;6.27;;;18.60;99.90;;;;;;4936060;29;20421;-81
2021/08/17 16:07:26;;;;;;;9.70;6.30;;;18.50;99.90;;;;;;4934541;29;20208;-80
2021/08/17 16:09:53;;;;;;;11.17;7.40;;;18.50;99.90;;;;;;4935810;29;20305;-79
2021/08/17 16:12:19;;;;;;;12.30;7.90;;;18.40;99.90;;;;;;4935420;29;20197;-79
2021/08/17 16:14:44;;;;;;;11.70;7.07;;;18.30;99.90;;;;;;4935639;29;20931;-80
2021/08/17 16:17:10;;;;;;;10.97;7.70;;;18.30;99.90;;;;;;4935922;29;20182;-79
2021/08/17 16:19:35;;;;;;;9.37;6.67;;;18.30;99.90;;;;;;4935961;29;20615;-80
2021/08/17 16:22:02;;;;;;;9.70;7.60;;;18.20;99.90;;;;;;4933991;29;20224;-80
2021/08/17 16:24:27;;;;;;;12.77;7.83;;;18.20;99.90;;;;;;4935426;29;20228;-81
2021/08/17 16:26:53;;;;;;;11.50;7.33;;;18.30;99.90;;;;;;4935525;29;20496;-80
2021/08/17 16:29:18;;;;;;;9.47;7.43;;;18.30;99.90;;;;;;4935309;29;20177;-81
2021/08/17 16:31:44;;;;;;;15.90;7.77;;;18.30;99.90;;;;;;4934975;29;20217;-80
2021/08/17 16:34:10;;;;;;;11.17;7.33;;;18.20;99.90;;;;;;4935404;29;20177;-79
2021/08/17 16:36:36;;;;;;;13.33;7.97;;;18.20;99.90;;;;;;4935691;29;20200;-80
2021/08/17 16:39:03;;;;;;;12.47;7.50;;;18.10;99.90;;;;;;4935313;29;20441;-80
2021/08/17 16:41:29;;;;;;;14.13;8.67;;;18.10;99.90;;;;;;4936695;29;20496;-80
2021/08/17 16:43:54;;;;;;;10.00;7.47;;;18.10;99.90;;;;;;4936120;29;20417;-80
2021/08/17 16:46:20;;;;;;;11.43;8.07;;;18.20;99.90;;;;;;4933581;29;20209;-80
2021/08/17 16:48:46;;;;;;;12.77;6.60;;;18.10;99.90;;;;;;4936131;29;20174;-80
2021/08/17 16:51:12;;;;;;;11.67;7.13;;;18.10;99.90;;;;;;4939173;29;20201;-79
2021/08/17 16:53:37;;;;;;;11.90;7.97;;;18.10;99.90;;;;;;4938791;29;20546;-80
2021/08/17 16:56:03;;;;;;;13.40;7.20;;;18.10;99.90;;;;;;4939275;29;20428;-80
2021/08/17 16:58:29;;;;;;;11.97;7.67;;;18.10;99.90;;;;;;4938787;29;20182;-80
2021/08/17 17:00:54;;;;;;;15.90;8.90;;;18.00;99.90;;;;;;4938788;29;20193;-80
2021/08/17 17:03:19;;;;;;;14.17;8.10;;;18.00;99.90;;;;;;4938701;29;20178;-82
2021/08/17 17:05:46;;;;;;;9.60;6.00;;;17.90;99.90;;;;;;4938842;29;20233;-80
2021/08/17 17:08:12;;;;;;;13.10;7.80;;;17.90;99.90;;;;;;4938469;29;20205;-80
2021/08/17 17:10:39;;;;;;;13.53;8.17;;;17.90;99.90;;;;;;4938328;29;20421;-80
2021/08/17 17:13:04;;;;;;;12.97;8.80;;;17.90;99.90;;;;;;4938365;29;20178;-81
2021/08/17 17:15:30;;;;;;;10.90;7.40;;;17.90;99.90;;;;;;4937269;29;20489;-80
2021/08/17 17:17:56;;;;;;;9.77;7.50;;;17.90;99.90;;;;;;4938416;29;20676;-79
2021/08/17 17:20:22;;;;;;;15.97;7.67;;;17.80;99.90;;;;;;4937104;29;20504;-80